Sesena, Spain
Current Conditions -  °F | °C
As of 1:00 PM on Friday 19 Dec 2014 (Local Time) from LEGT Reporting Station
Clear Clear  
Wind Chill: 48°   Ceiling: Unl
Heat Index: 48°   Visibility: 4mi
Dew Point: 45°   Wind: 2mph
Humidity: 87%   Direction: 80°E
Pressure: 30.45"   Gusts: NA
Location:  40.1°N, 3.7°W
Report Text: LEGT 191200Z 08002KT 7000 NSC 09/07 Q1031
Loading
Personal Weather Stations






























Interactive Weather Map New forecast layout! Learn more

10-Day Weather Forecast

Advertisements
Track Severe Weather on mobile